Time;durP1;ratioP1;P1;durP2;ratioP2;P2;SDS_P1;SDS_P2;PMS_P1;PMS_P2;Temp;Humidity;BMP_temperature;BMP_pressure;BME280_temperature;BME280_humidity;BME280_pressure;Samples;Min_cycle;Max_cycle;Signal;HPM_P1;HPM_P2
2022/03/01 00:00:47;;;;;;;1.25;0.60;;;;;;;;;;4969487;28;20065;-64
2022/03/01 00:03:20;;;;;;;1.05;0.43;;;;;;;;;;4971486;28;20647;-64
2022/03/01 00:05:53;;;;;;;3.33;0.60;;;;;;;;;;4913668;29;20064;-64
2022/03/01 00:08:28;;;;;;;1.80;0.47;;;;;;;;;;4913778;29;20068;-64
2022/03/01 00:10:59;;;;;;;1.95;0.57;;;;;;;;;;4910564;29;20061;-64
2022/03/01 00:13:35;;;;;;;3.25;0.70;;;;;;;;;;4882711;29;20061;-64
2022/03/01 00:16:08;;;;;;;1.52;0.47;;;;;;;;;;4883702;29;20529;-64
2022/03/01 00:18:39;;;;;;;1.98;0.30;;;;;;;;;;4897349;29;20057;-62
2022/03/01 00:21:09;;;;;;;1.30;0.43;;;;;;;;;;4895295;29;20053;-62
2022/03/01 00:23:40;;;;;;;2.28;0.60;;;;;;;;;;4894404;29;20433;-62
2022/03/01 00:26:12;;;;;;;0.75;0.45;;;;;;;;;;4894148;29;20064;-62
2022/03/01 00:28:44;;;;;;;2.90;0.75;;;;;;;;;;4878772;29;20072;-62
2022/03/01 00:31:36;;;;;;;1.77;0.57;;;;;;;;;;4817501;29;20064;-62
2022/03/01 00:34:40;;;;;;;2.63;0.50;;;;;;;;;;4852040;29;20498;-62
2022/03/01 00:37:13;;;;;;;1.95;0.50;;;;;;;;;;4894831;29;20421;-62
2022/03/01 00:39:45;;;;;;;1.00;0.40;;;;;;;;;;4895236;29;20061;-61
2022/03/01 00:42:15;;;;;;;4.80;0.43;;;;;;;;;;4863643;29;20057;-62
2022/03/01 00:44:45;;;;;;;2.10;0.40;;;;;;;;;;4882319;29;20064;-62
2022/03/01 00:47:15;;;;;;;1.83;0.50;;;;;;;;;;4867369;29;20060;-64
2022/03/01 00:49:46;;;;;;;1.77;0.50;;;;;;;;;;4913798;29;20100;-64
2022/03/01 00:52:21;;;;;;;3.50;0.70;;;;;;;;;;4934011;29;20097;-63
2022/03/01 00:54:55;;;;;;;0.95;0.40;;;;;;;;;;4932454;29;20055;-63
2022/03/01 00:57:25;;;;;;;1.63;0.60;;;;;;;;;;4940734;29;20500;-64
2022/03/01 00:59:56;;;;;;;4.40;1.23;;;;;;;;;;4960736;28;20066;-63
2022/03/01 01:02:30;;;;;;;2.97;0.60;;;;;;;;;;4936452;29;20574;-64
2022/03/01 01:05:01;;;;;;;2.83;0.77;;;;;;;;;;4951457;29;20070;-65
2022/03/01 01:07:31;;;;;;;1.98;0.90;;;;;;;;;;4903844;29;20070;-65
2022/03/01 01:10:03;;;;;;;4.38;0.70;;;;;;;;;;4952441;28;20047;-64
2022/03/01 01:12:37;;;;;;;0.90;0.50;;;;;;;;;;4938621;28;20054;-65
2022/03/01 01:15:11;;;;;;;4.93;0.63;;;;;;;;;;4950964;29;20051;-64
2022/03/01 01:17:42;;;;;;;1.65;0.70;;;;;;;;;;4952321;28;20055;-64
2022/03/01 01:20:14;;;;;;;2.60;0.55;;;;;;;;;;4934773;28;20082;-65
2022/03/01 01:22:52;;;;;;;2.03;0.70;;;;;;;;;;4931031;29;20099;-65
2022/03/01 01:25:28;;;;;;;2.35;0.73;;;;;;;;;;4871519;29;20064;-64
2022/03/01 01:28:01;;;;;;;1.63;0.93;;;;;;;;;;4931564;29;20504;-65
2022/03/01 01:30:33;;;;;;;2.17;1.02;;;;;;;;;;4931676;29;20079;-65
2022/03/01 01:33:08;;;;;;;3.15;1.00;;;;;;;;;;4929068;29;20071;-65
2022/03/01 01:35:43;;;;;;;1.90;0.88;;;;;;;;;;4916014;29;20063;-65
2022/03/01 01:38:14;;;;;;;3.58;0.80;;;;;;;;;;4913035;29;20063;-64
2022/03/01 01:40:44;;;;;;;2.72;1.00;;;;;;;;;;4895464;29;20084;-65
2022/03/01 01:43:17;;;;;;;;;;;;;;;;;;4913348;29;20568;-65
2022/03/01 01:45:52;;;;;;;3.08;0.90;;;;;;;;;;4911689;29;19931;-65
2022/03/01 01:48:24;;;;;;;3.85;1.25;;;;;;;;;;4912606;29;20473;-65
2022/03/01 01:50:54;;;;;;;4.28;1.35;;;;;;;;;;4877706;29;20072;-65
2022/03/01 01:53:30;;;;;;;3.92;1.30;;;;;;;;;;4918295;29;20058;-65
2022/03/01 01:56:25;;;;;;;3.03;1.20;;;;;;;;;;4950553;29;20063;-66
2022/03/01 01:58:58;;;;;;;2.90;1.40;;;;;;;;;;4946693;29;20671;-65
2022/03/01 02:01:28;;;;;;;4.07;1.20;;;;;;;;;;4964654;28;20047;-65
2022/03/01 02:04:01;;;;;;;3.30;1.05;;;;;;;;;;4951596;28;20456;-65
2022/03/01 02:06:49;;;;;;;1.60;0.98;;;;;;;;;;4935609;29;20058;-65
2022/03/01 02:09:20;;;;;;;3.08;1.13;;;;;;;;;;4912158;29;20056;-65
2022/03/01 02:11:50;;;;;;;5.78;1.55;;;;;;;;;;4912350;29;20075;-65
2022/03/01 02:14:24;;;;;;;4.80;1.10;;;;;;;;;;4913668;29;20071;-65
2022/03/01 02:17:00;;;;;;;3.30;1.20;;;;;;;;;;4962170;28;20051;-65
2022/03/01 02:19:31;;;;;;;3.15;1.27;;;;;;;;;;4953172;28;20614;-65
2022/03/01 02:22:01;;;;;;;3.03;1.58;;;;;;;;;;4921386;28;20080;-65
2022/03/01 02:24:32;;;;;;;5.35;1.40;;;;;;;;;;4954067;28;20530;-67
2022/03/01 02:27:06;;;;;;;2.55;1.35;;;;;;;;;;4969984;28;20583;-67
2022/03/01 02:29:41;;;;;;;2.67;1.45;;;;;;;;;;4912203;29;20060;-65
2022/03/01 02:32:12;;;;;;;5.95;1.92;;;;;;;;;;4911810;29;20532;-65
2022/03/01 02:34:48;;;;;;;3.22;1.25;;;;;;;;;;4911839;29;20044;-66
2022/03/01 02:37:21;;;;;;;7.75;1.52;;;;;;;;;;4882466;29;20060;-66
2022/03/01 02:39:54;;;;;;;4.03;1.67;;;;;;;;;;4874588;29;20060;-67
2022/03/01 02:42:27;;;;;;;4.70;1.58;;;;;;;;;;4893064;29;20059;-67
2022/03/01 02:44:59;;;;;;;3.03;1.45;;;;;;;;;;4893434;29;20056;-66
2022/03/01 02:47:32;;;;;;;3.10;1.67;;;;;;;;;;4892848;29;20068;-66
2022/03/01 02:50:05;;;;;;;11.70;2.45;;;;;;;;;;4893281;29;20059;-66
2022/03/01 02:52:41;;;;;;;7.32;1.80;;;;;;;;;;4895819;29;20056;-65
2022/03/01 02:55:15;;;;;;;6.95;2.20;;;;;;;;;;4912157;29;20060;-65
2022/03/01 02:57:46;;;;;;;5.80;1.98;;;;;;;;;;4914681;29;20071;-65
2022/03/01 03:00:20;;;;;;;6.97;2.20;;;;;;;;;;4915531;29;20527;-64
2022/03/01 03:02:51;;;;;;;3.38;1.85;;;;;;;;;;4920873;29;20056;-64
2022/03/01 03:05:24;;;;;;;4.32;1.98;;;;;;;;;;4865731;29;20053;-64
2022/03/01 03:07:56;;;;;;;3.95;1.73;;;;;;;;;;4910726;29;20060;-64
2022/03/01 03:10:29;;;;;;;5.18;2.03;;;;;;;;;;4878795;29;20061;-64
2022/03/01 03:13:04;;;;;;;4.68;1.92;;;;;;;;;;4882659;29;20502;-64
2022/03/01 03:15:39;;;;;;;4.07;1.98;;;;;;;;;;4863077;29;20525;-64
2022/03/01 03:18:10;;;;;;;;;;;;;;;;;;4878384;29;20057;-64
2022/03/01 03:20:41;;;;;;;5.72;2.33;;;;;;;;;;4892065;29;19923;-63
2022/03/01 03:23:11;;;;;;;3.47;1.98;;;;;;;;;;4906666;29;20083;-63
2022/03/01 03:25:45;;;;;;;4.80;2.13;;;;;;;;;;4900062;29;20066;-63
2022/03/01 03:28:17;;;;;;;6.68;2.10;;;;;;;;;;4915454;29;20067;-63
2022/03/01 03:30:50;;;;;;;3.75;2.17;;;;;;;;;;4896319;29;20059;-63
2022/03/01 03:33:21;;;;;;;5.63;2.63;;;;;;;;;;4895920;29;20069;-63
2022/03/01 03:35:56;;;;;;;6.88;2.05;;;;;;;;;;4879834;29;20071;-63
2022/03/01 03:38:29;;;;;;;3.90;2.03;;;;;;;;;;4891206;29;20196;-63
2022/03/01 03:41:02;;;;;;;5.25;2.20;;;;;;;;;;4894864;29;20063;-63
2022/03/01 03:43:32;;;;;;;5.65;2.22;;;;;;;;;;4949801;28;20058;-63
2022/03/01 03:46:08;;;;;;;8.38;2.40;;;;;;;;;;4952870;29;20055;-64
2022/03/01 03:48:39;;;;;;;5.18;2.05;;;;;;;;;;4953068;29;20063;-63
2022/03/01 03:51:09;;;;;;;5.68;2.10;;;;;;;;;;4921228;29;20063;-63
2022/03/01 03:53:39;;;;;;;3.88;2.17;;;;;;;;;;4936859;29;20188;-63
2022/03/01 03:56:11;;;;;;;9.15;2.33;;;;;;;;;;4953263;29;20062;-63
2022/03/01 03:58:46;;;;;;;4.03;2.10;;;;;;;;;;4952561;29;20058;-63
2022/03/01 04:01:17;;;;;;;6.93;2.05;;;;;;;;;;4953047;29;20059;-63
2022/03/01 04:03:50;;;;;;;6.13;2.33;;;;;;;;;;4948901;29;20063;-63
2022/03/01 04:06:20;;;;;;;3.78;2.05;;;;;;;;;;4933808;29;20051;-63
2022/03/01 04:08:50;;;;;;;4.90;2.17;;;;;;;;;;4933445;29;20056;-63
2022/03/01 04:11:24;;;;;;;4.85;2.42;;;;;;;;;;4933548;29;20056;-63
2022/03/01 04:13:55;;;;;;;3.80;2.17;;;;;;;;;;4934766;29;20556;-63
2022/03/01 04:16:27;;;;;;;4.53;2.20;;;;;;;;;;4917905;28;20047;-63
2022/03/01 04:18:58;;;;;;;4.22;1.95;;;;;;;;;;4952619;29;20455;-63
2022/03/01 04:21:31;;;;;;;5.22;2.00;;;;;;;;;;4952775;29;20565;-63
2022/03/01 04:24:06;;;;;;;12.98;2.75;;;;;;;;;;4952890;28;20071;-63
2022/03/01 04:26:36;;;;;;;8.27;2.20;;;;;;;;;;4952579;29;20062;-63
2022/03/01 04:29:11;;;;;;;5.43;2.50;;;;;;;;;;4952298;29;20062;-63
2022/03/01 04:31:44;;;;;;;5.82;2.13;;;;;;;;;;4952456;29;20078;-63
2022/03/01 04:34:15;;;;;;;7.18;1.80;;;;;;;;;;4936142;29;20534;-63
2022/03/01 04:36:46;;;;;;;4.70;1.98;;;;;;;;;;4970956;28;20061;-63
2022/03/01 04:39:16;;;;;;;4.57;2.30;;;;;;;;;;4969611;28;20101;-63
2022/03/01 04:41:48;;;;;;;3.15;1.88;;;;;;;;;;4958886;28;20069;-63
2022/03/01 04:44:19;;;;;;;5.50;2.33;;;;;;;;;;4959087;28;20058;-63
2022/03/01 04:46:51;;;;;;;5.25;2.65;;;;;;;;;;4990765;28;20046;-63
2022/03/01 04:49:22;;;;;;;4.70;2.42;;;;;;;;;;4974455;28;20062;-63
2022/03/01 04:51:52;;;;;;;8.00;2.35;;;;;;;;;;4990932;28;20054;-63
2022/03/01 04:54:23;;;;;;;6.18;2.67;;;;;;;;;;4990608;28;20503;-63
2022/03/01 04:56:53;;;;;;;5.20;2.13;;;;;;;;;;4990614;28;20057;-63
2022/03/01 04:59:26;;;;;;;5.35;2.58;;;;;;;;;;4993350;28;20061;-63
2022/03/01 05:01:56;;;;;;;6.13;2.35;;;;;;;;;;4993293;28;20077;-63
2022/03/01 05:04:29;;;;;;;7.80;2.45;;;;;;;;;;4936241;29;20055;-63
2022/03/01 05:07:03;;;;;;;6.80;2.30;;;;;;;;;;4936137;29;20059;-63
2022/03/01 05:09:35;;;;;;;6.68;2.22;;;;;;;;;;4856638;29;20057;-63
2022/03/01 05:12:05;;;;;;;5.15;2.30;;;;;;;;;;4857455;29;20431;-63
2022/03/01 05:14:39;;;;;;;6.82;1.80;;;;;;;;;;4857209;29;20454;-63
2022/03/01 05:17:11;;;;;;;4.07;1.67;;;;;;;;;;4857411;29;20066;-63
2022/03/01 05:19:41;;;;;;;;;;;;;;;;;;4856956;29;20503;-63
2022/03/01 05:22:11;;;;;;;4.25;1.65;;;;;;;;;;4823339;29;19924;-63
2022/03/01 05:24:42;;;;;;;8.35;1.90;;;;;;;;;;4823617;29;20058;-63
2022/03/01 05:27:14;;;;;;;5.80;1.73;;;;;;;;;;4849977;29;20050;-63
2022/03/01 05:29:46;;;;;;;3.97;1.58;;;;;;;;;;4857018;29;20092;-63
2022/03/01 05:32:17;;;;;;;3.45;1.55;;;;;;;;;;4873973;29;20572;-63
2022/03/01 05:34:48;;;;;;;3.47;1.50;;;;;;;;;;4860385;29;20498;-63
2022/03/01 05:37:19;;;;;;;5.72;1.63;;;;;;;;;;4875418;29;20470;-63
2022/03/01 05:39:52;;;;;;;10.45;1.55;;;;;;;;;;4844564;29;20053;-63
2022/03/01 05:42:23;;;;;;;7.68;1.90;;;;;;;;;;4894301;29;20540;-63
2022/03/01 05:44:55;;;;;;;4.65;2.00;;;;;;;;;;4881859;29;20055;-63
2022/03/01 05:47:27;;;;;;;7.38;2.17;;;;;;;;;;4915440;28;20065;-63
2022/03/01 05:50:03;;;;;;;3.60;1.50;;;;;;;;;;4970399;28;20094;-63
2022/03/01 05:52:33;;;;;;;3.70;1.20;;;;;;;;;;4959811;28;20466;-63
2022/03/01 05:55:04;;;;;;;3.80;1.33;;;;;;;;;;4970209;28;20415;-63
2022/03/01 05:57:43;;;;;;;5.30;1.52;;;;;;;;;;4900953;29;20051;-63
2022/03/01 06:00:19;;;;;;;6.78;1.77;;;;;;;;;;4931442;29;20412;-63
2022/03/01 06:02:52;;;;;;;;;;;;;;;;;;4898783;29;20048;-64
2022/03/01 06:05:28;;;;;;;5.22;1.67;;;;;;;;;;4893545;29;19929;-63
2022/03/01 06:08:01;;;;;;;4.85;1.30;;;;;;;;;;4893552;29;20063;-63
2022/03/01 06:10:32;;;;;;;2.50;1.20;;;;;;;;;;4893503;29;20049;-63
2022/03/01 06:13:06;;;;;;;4.18;1.38;;;;;;;;;;4893326;29;20064;-63
2022/03/01 06:15:36;;;;;;;7.60;1.27;;;;;;;;;;4893125;29;20063;-64
2022/03/01 06:18:09;;;;;;;3.67;1.40;;;;;;;;;;4878517;29;20060;-65
2022/03/01 06:20:42;;;;;;;6.90;1.00;;;;;;;;;;4878654;29;20501;-65
2022/03/01 06:23:12;;;;;;;4.18;1.15;;;;;;;;;;4893075;29;20044;-64
2022/03/01 06:25:45;;;;;;;3.88;1.30;;;;;;;;;;4847033;29;20064;-65
2022/03/01 06:28:16;;;;;;;3.95;1.20;;;;;;;;;;4893436;29;20061;-65
2022/03/01 06:30:48;;;;;;;3.58;1.15;;;;;;;;;;4936752;28;20414;-64
2022/03/01 06:33:21;;;;;;;3.25;1.50;;;;;;;;;;4953913;29;20060;-64
2022/03/01 06:35:51;;;;;;;2.25;1.25;;;;;;;;;;4916016;29;20052;-64
2022/03/01 06:38:23;;;;;;;3.63;1.33;;;;;;;;;;4916031;29;20453;-65
2022/03/01 06:40:56;;;;;;;;;;;;;;;;;;4929119;29;20071;-65
2022/03/01 06:43:26;;;;;;;4.55;1.23;;;;;;;;;;4925064;29;20383;-64
2022/03/01 06:45:56;;;;;;;3.17;1.67;;;;;;;;;;4934797;29;20074;-64
2022/03/01 06:48:28;;;;;;;9.32;2.47;;;;;;;;;;4939468;29;20157;-64
2022/03/01 06:51:00;;;;;;;6.22;2.92;;;;;;;;;;4954063;29;20503;-64
2022/03/01 06:53:36;;;;;;;5.88;3.78;;;;;;;;;;4953894;29;20059;-64
2022/03/01 06:56:06;;;;;;;6.85;3.85;;;;;;;;;;4954181;29;20051;-64
2022/03/01 06:58:36;;;;;;;10.20;4.18;;;;;;;;;;4887004;29;20048;-64
2022/03/01 07:01:11;;;;;;;9.23;3.67;;;;;;;;;;4934803;29;20062;-64
2022/03/01 07:03:42;;;;;;;7.25;4.53;;;;;;;;;;4934219;29;20063;-65
2022/03/01 07:06:14;;;;;;;8.00;4.03;;;;;;;;;;4934646;29;20071;-64
2022/03/01 07:08:44;;;;;;;7.03;3.80;;;;;;;;;;4934800;29;20056;-65
2022/03/01 07:11:14;;;;;;;11.05;4.32;;;;;;;;;;4934901;29;20532;-65
2022/03/01 07:13:47;;;;;;;9.38;4.60;;;;;;;;;;4957980;28;20059;-64
2022/03/01 07:16:19;;;;;;;11.90;4.47;;;;;;;;;;4916898;28;20051;-65
2022/03/01 07:18:54;;;;;;;9.35;4.50;;;;;;;;;;4921984;28;20062;-65
2022/03/01 07:21:26;;;;;;;;;;;;;;;;;;4922120;28;20074;-65
2022/03/01 07:23:56;;;;;;;11.50;4.45;;;;;;;;;;4953595;28;19928;-64
2022/03/01 07:26:31;;;;;;;8.15;4.60;;;;;;;;;;4940715;28;20542;-65
2022/03/01 07:29:02;;;;;;;11.27;4.32;;;;;;;;;;4972549;28;20058;-65
2022/03/01 07:31:32;;;;;;;7.75;4.63;;;;;;;;;;4940547;28;20431;-65
2022/03/01 07:34:03;;;;;;;9.07;4.55;;;;;;;;;;4953238;28;20051;-65
2022/03/01 07:36:34;;;;;;;7.82;4.53;;;;;;;;;;4977882;28;20411;-65
2022/03/01 07:39:07;;;;;;;8.80;4.47;;;;;;;;;;4991845;28;20050;-65
2022/03/01 07:41:39;;;;;;;8.15;4.38;;;;;;;;;;4992177;28;20054;-65
2022/03/01 07:44:12;;;;;;;7.80;4.28;;;;;;;;;;4957355;28;20054;-65
2022/03/01 07:46:46;;;;;;;8.20;4.75;;;;;;;;;;4972276;28;20082;-65
2022/03/01 07:49:21;;;;;;;8.07;3.75;;;;;;;;;;4971897;28;20063;-64
2022/03/01 07:51:54;;;;;;;8.05;4.07;;;;;;;;;;4956206;28;20500;-65
2022/03/01 07:54:24;;;;;;;8.77;4.22;;;;;;;;;;4963143;28;20435;-65
2022/03/01 07:56:55;;;;;;;8.05;4.28;;;;;;;;;;4952967;29;20067;-65
2022/03/01 07:59:28;;;;;;;8.02;4.82;;;;;;;;;;4921286;29;20051;-65
2022/03/01 08:01:58;;;;;;;9.45;4.25;;;;;;;;;;4953025;29;20098;-65
2022/03/01 08:04:29;;;;;;;12.50;4.72;;;;;;;;;;4961197;28;20534;-65
2022/03/01 08:07:02;;;;;;;8.63;4.22;;;;;;;;;;4971923;28;20074;-65
2022/03/01 08:09:33;;;;;;;8.32;4.57;;;;;;;;;;4955633;28;20067;-65
2022/03/01 08:12:06;;;;;;;11.73;4.07;;;;;;;;;;4969846;28;20054;-65
2022/03/01 08:14:37;;;;;;;7.35;4.15;;;;;;;;;;4955039;28;20526;-65
2022/03/01 08:17:10;;;;;;;7.50;4.53;;;;;;;;;;4940693;28;20062;-65
2022/03/01 08:19:43;;;;;;;7.30;4.38;;;;;;;;;;4908717;28;20561;-65
2022/03/01 08:22:15;;;;;;;8.07;4.00;;;;;;;;;;4972002;28;20403;-65
2022/03/01 08:24:46;;;;;;;10.07;4.20;;;;;;;;;;4984737;28;20062;-65
2022/03/01 08:27:20;;;;;;;8.15;4.60;;;;;;;;;;4924442;28;20058;-65
2022/03/01 08:29:52;;;;;;;10.82;4.47;;;;;;;;;;4908557;28;20116;-65
2022/03/01 08:32:25;;;;;;;8.63;4.03;;;;;;;;;;4924392;28;20680;-65
2022/03/01 08:34:55;;;;;;;8.25;4.57;;;;;;;;;;4957085;28;20060;-65
2022/03/01 08:37:29;;;;;;;6.30;3.67;;;;;;;;;;4952208;29;20074;-65
2022/03/01 08:40:02;;;;;;;8.70;4.53;;;;;;;;;;4951962;29;20066;-65
2022/03/01 08:42:33;;;;;;;8.80;4.60;;;;;;;;;;4904979;29;20051;-65
2022/03/01 08:45:05;;;;;;;9.75;4.30;;;;;;;;;;4973135;28;20062;-65
2022/03/01 08:47:44;;;;;;;7.10;4.00;;;;;;;;;;4944025;28;20062;-65
2022/03/01 08:50:16;;;;;;;7.03;4.03;;;;;;;;;;4974791;28;20050;-65
2022/03/01 08:53:07;;;;;;;7.20;3.70;;;;;;;;;;4971051;28;20058;-65
2022/03/01 08:55:37;;;;;;;7.20;4.00;;;;;;;;;;4951846;28;20059;-65
2022/03/01 08:58:10;;;;;;;7.85;3.97;;;;;;;;;;4951677;29;20106;-65
2022/03/01 09:00:43;;;;;;;6.88;4.32;;;;;;;;;;4951954;29;20056;-65
2022/03/01 09:03:14;;;;;;;13.32;3.95;;;;;;;;;;4955831;28;20043;-65
2022/03/01 09:06:06;;;;;;;11.88;3.92;;;;;;;;;;4970724;28;20046;-65
2022/03/01 09:08:41;;;;;;;10.85;3.92;;;;;;;;;;4971095;28;20077;-65
2022/03/01 09:11:14;;;;;;;6.60;3.72;;;;;;;;;;4970769;28;20054;-65
2022/03/01 09:13:49;;;;;;;9.18;4.50;;;;;;;;;;4964092;28;20055;-65
2022/03/01 09:16:19;;;;;;;7.47;3.83;;;;;;;;;;4951521;29;20059;-65
2022/03/01 09:18:50;;;;;;;9.57;4.30;;;;;;;;;;4935682;29;20535;-65
2022/03/01 09:21:20;;;;;;;8.63;4.10;;;;;;;;;;4970125;28;20059;-65
2022/03/01 09:23:51;;;;;;;7.00;3.83;;;;;;;;;;4973680;28;20506;-65
2022/03/01 09:26:21;;;;;;;9.95;4.45;;;;;;;;;;4970343;28;20082;-66
2022/03/01 09:28:51;;;;;;;11.45;4.75;;;;;;;;;;4941962;28;20056;-65
2022/03/01 09:31:22;;;;;;;8.95;4.85;;;;;;;;;;4945723;28;20086;-65
2022/03/01 09:33:56;;;;;;;8.27;4.15;;;;;;;;;;4951134;28;20047;-65
2022/03/01 09:36:26;;;;;;;9.15;4.22;;;;;;;;;;4951192;28;20063;-65
2022/03/01 09:38:57;;;;;;;10.63;5.22;;;;;;;;;;4912243;29;20056;-65
2022/03/01 09:41:27;;;;;;;7.65;4.30;;;;;;;;;;4912385;29;20060;-65
2022/03/01 09:44:01;;;;;;;8.90;4.30;;;;;;;;;;4912819;29;20056;-65
2022/03/01 09:46:33;;;;;;;12.40;4.75;;;;;;;;;;4866127;29;20060;-65
2022/03/01 09:49:06;;;;;;;10.23;4.65;;;;;;;;;;4896927;29;20066;-65
2022/03/01 09:51:41;;;;;;;7.72;4.63;;;;;;;;;;4948937;29;20056;-65
2022/03/01 09:54:13;;;;;;;17.15;5.35;;;;;;;;;;4950678;29;20059;-64
2022/03/01 09:56:45;;;;;;;8.32;4.63;;;;;;;;;;4950980;29;20051;-65
2022/03/01 09:59:20;;;;;;;9.07;4.57;;;;;;;;;;4950771;29;20059;-65
2022/03/01 10:01:50;;;;;;;8.32;4.60;;;;;;;;;;4949307;29;20534;-64
2022/03/01 10:04:26;;;;;;;9.10;4.80;;;;;;;;;;4916378;29;20047;-65
2022/03/01 10:07:03;;;;;;;9.95;4.93;;;;;;;;;;4944177;29;20043;-65
2022/03/01 10:09:41;;;;;;;10.65;4.93;;;;;;;;;;4950715;29;20059;-65
2022/03/01 10:12:12;;;;;;;8.48;4.65;;;;;;;;;;4900360;29;20459;-65
2022/03/01 10:14:47;;;;;;;7.82;4.50;;;;;;;;;;4931598;29;20062;-65
2022/03/01 10:17:20;;;;;;;10.82;5.53;;;;;;;;;;4946733;29;20067;-64
2022/03/01 10:20:08;;;;;;;7.75;4.80;;;;;;;;;;4934362;29;20055;-64
2022/03/01 10:22:50;;;;;;;7.05;4.38;;;;;;;;;;4931551;29;20059;-65
2022/03/01 10:25:25;;;;;;;11.45;4.60;;;;;;;;;;4916168;29;20696;-65
2022/03/01 10:27:58;;;;;;;9.05;4.85;;;;;;;;;;4915446;29;20471;-65
2022/03/01 10:30:36;;;;;;;11.23;4.80;;;;;;;;;;4931445;29;20051;-65
2022/03/01 10:33:14;;;;;;;8.00;4.68;;;;;;;;;;4915339;29;20075;-65
2022/03/01 10:35:58;;;;;;;9.85;4.65;;;;;;;;;;4915523;29;20056;-65
2022/03/01 10:38:32;;;;;;;10.95;4.50;;;;;;;;;;4931276;29;20075;-65
2022/03/01 10:41:07;;;;;;;6.10;3.60;;;;;;;;;;4936469;28;20066;-65
2022/03/01 10:43:37;;;;;;;8.65;3.85;;;;;;;;;;4986995;28;20065;-65
2022/03/01 10:46:08;;;;;;;8.15;3.88;;;;;;;;;;4937272;28;20131;-65
2022/03/01 10:48:40;;;;;;;;;;;;;;;;;;4969896;28;20479;-65
2022/03/01 10:51:19;;;;;;;5.80;3.45;;;;;;;;;;4969544;28;19951;-65
2022/03/01 10:53:50;;;;;;;5.82;3.42;;;;;;;;;;4988421;28;20065;-65
2022/03/01 10:56:20;;;;;;;6.53;3.85;;;;;;;;;;4988314;28;20046;-65
2022/03/01 10:58:56;;;;;;;7.93;3.90;;;;;;;;;;4956370;28;20050;-65
2022/03/01 11:01:28;;;;;;;7.53;3.92;;;;;;;;;;4961785;28;20066;-65
2022/03/01 11:03:58;;;;;;;12.55;4.03;;;;;;;;;;4960248;28;20050;-65
2022/03/01 11:06:29;;;;;;;6.60;3.67;;;;;;;;;;5010992;28;20041;-65
2022/03/01 11:09:03;;;;;;;5.70;3.28;;;;;;;;;;4950117;28;20060;-64
2022/03/01 11:11:37;;;;;;;6.63;3.70;;;;;;;;;;5008357;28;20061;-65
2022/03/01 11:14:11;;;;;;;6.95;3.80;;;;;;;;;;4944307;28;20065;-65
2022/03/01 11:16:57;;;;;;;7.10;3.90;;;;;;;;;;4949201;28;20047;-65
2022/03/01 11:19:49;;;;;;;7.88;3.60;;;;;;;;;;4953726;29;20051;-65
2022/03/01 11:22:52;;;;;;;8.32;4.07;;;;;;;;;;4953672;29;20059;-65
2022/03/01 11:25:27;;;;;;;6.32;3.53;;;;;;;;;;4877602;29;20056;-65
2022/03/01 11:28:05;;;;;;;7.10;3.50;;;;;;;;;;4873657;29;20057;-65
2022/03/01 11:30:51;;;;;;;8.52;3.58;;;;;;;;;;4875180;29;20065;-65
2022/03/01 11:33:36;;;;;;;5.45;2.90;;;;;;;;;;4871910;29;20045;-65
2022/03/01 11:36:20;;;;;;;5.97;2.80;;;;;;;;;;4838518;29;20060;-66
2022/03/01 11:38:51;;;;;;;6.50;3.58;;;;;;;;;;4876470;29;20514;-65
2022/03/01 11:41:23;;;;;;;4.10;2.60;;;;;;;;;;4877118;29;20068;-65
2022/03/01 11:43:59;;;;;;;;;;;;;;;;;;4872444;29;20064;-66
2022/03/01 11:46:42;;;;;;;6.68;2.50;;;;;;;;;;4887731;29;19931;-65
2022/03/01 11:49:14;;;;;;;6.30;2.72;;;;;;;;;;4886416;29;20529;-66
2022/03/01 11:51:51;;;;;;;6.47;3.45;;;;;;;;;;4876905;29;20046;-65
2022/03/01 11:54:30;;;;;;;7.95;2.83;;;;;;;;;;4905680;29;20424;-65
2022/03/01 11:57:06;;;;;;;5.00;2.97;;;;;;;;;;4914895;29;20060;-64
2022/03/01 11:59:39;;;;;;;6.63;2.72;;;;;;;;;;4913919;29;20060;-62
2022/03/01 12:02:20;;;;;;;3.97;2.28;;;;;;;;;;4939855;28;20054;-62
2022/03/01 12:04:55;;;;;;;3.40;2.20;;;;;;;;;;4971350;28;20047;-62
2022/03/01 12:07:30;;;;;;;7.10;2.22;;;;;;;;;;4913895;29;20056;-62
2022/03/01 12:10:05;;;;;;;4.28;2.15;;;;;;;;;;4932625;29;20440;-62
2022/03/01 12:12:44;;;;;;;5.18;1.95;;;;;;;;;;4933339;29;20060;-62
2022/03/01 12:15:27;;;;;;;4.35;1.83;;;;;;;;;;4933267;29;20419;-62
2022/03/01 12:18:11;;;;;;;4.18;2.13;;;;;;;;;;4933441;29;20496;-62
2022/03/01 12:20:44;;;;;;;3.35;2.10;;;;;;;;;;4885010;29;20045;-62
2022/03/01 12:23:30;;;;;;;7.88;2.35;;;;;;;;;;4912054;29;20063;-62
2022/03/01 12:26:05;;;;;;;4.03;1.70;;;;;;;;;;4914584;29;20417;-62
2022/03/01 12:28:41;;;;;;;3.92;1.55;;;;;;;;;;4933127;29;20074;-61
2022/03/01 12:31:15;;;;;;;2.55;1.60;;;;;;;;;;4952022;29;20047;-62
2022/03/01 12:33:57;;;;;;;3.92;1.52;;;;;;;;;;4904971;29;20540;-63
2022/03/01 12:36:35;;;;;;;3.90;1.75;;;;;;;;;;4952057;29;20051;-62
2022/03/01 12:39:12;;;;;;;3.85;1.60;;;;;;;;;;4952093;29;20055;-64
2022/03/01 12:41:49;;;;;;;5.93;1.40;;;;;;;;;;4913756;29;20688;-64
2022/03/01 12:44:23;;;;;;;3.05;1.30;;;;;;;;;;4904375;29;20055;-63
2022/03/01 12:46:56;;;;;;;2.97;1.65;;;;;;;;;;4917515;29;20063;-63
2022/03/01 12:49:27;;;;;;;3.33;1.50;;;;;;;;;;4933349;29;20043;-63
2022/03/01 12:51:57;;;;;;;5.90;1.30;;;;;;;;;;4901263;29;20056;-64
2022/03/01 12:54:35;;;;;;;2.92;1.02;;;;;;;;;;4944641;29;20523;-64
2022/03/01 12:57:08;;;;;;;1.98;1.10;;;;;;;;;;4945284;29;20551;-65
2022/03/01 12:59:41;;;;;;;2.10;1.33;;;;;;;;;;4971234;28;20054;-63
2022/03/01 13:02:15;;;;;;;8.40;1.52;;;;;;;;;;4917207;29;20059;-65
2022/03/01 13:04:49;;;;;;;3.58;1.52;;;;;;;;;;4942713;29;20419;-64
2022/03/01 13:07:30;;;;;;;4.57;1.30;;;;;;;;;;4936032;29;20087;-64
2022/03/01 13:10:04;;;;;;;4.40;1.05;;;;;;;;;;4951386;29;20047;-65
2022/03/01 13:12:35;;;;;;;1.45;0.73;;;;;;;;;;4889392;29;20099;-64
2022/03/01 13:15:07;;;;;;;2.25;1.23;;;;;;;;;;4866643;29;20436;-64
2022/03/01 13:17:50;;;;;;;;;;;;;;;;;;4913849;29;20068;-64
2022/03/01 13:20:21;;;;;;;2.38;1.00;;;;;;;;;;4932198;28;20422;-64
2022/03/01 13:23:26;;;;;;;3.15;1.65;;;;;;;;;;4935860;29;20488;-64
2022/03/01 13:26:01;;;;;;;2.63;1.45;;;;;;;;;;4875490;29;20072;-64
2022/03/01 13:28:37;;;;;;;1.92;1.30;;;;;;;;;;4876044;29;20057;-65
2022/03/01 13:31:23;;;;;;;2.25;1.23;;;;;;;;;;4875213;29;20460;-63
2022/03/01 13:33:56;;;;;;;3.35;1.90;;;;;;;;;;4875841;29;20073;-65
2022/03/01 13:36:34;;;;;;;3.47;1.80;;;;;;;;;;4875389;29;20064;-65
2022/03/01 13:39:10;;;;;;;5.00;2.00;;;;;;;;;;4897707;29;20056;-65
2022/03/01 13:41:52;;;;;;;4.35;2.33;;;;;;;;;;4881287;29;20627;-63
2022/03/01 13:44:26;;;;;;;4.45;2.70;;;;;;;;;;4912905;29;20064;-65
2022/03/01 13:47:14;;;;;;;3.92;2.10;;;;;;;;;;4913183;29;20055;-65
2022/03/01 13:49:56;;;;;;;5.78;2.80;;;;;;;;;;4917953;29;20048;-65
2022/03/01 13:52:28;;;;;;;4.50;2.65;;;;;;;;;;4912611;29;20059;-64
2022/03/01 13:55:02;;;;;;;5.13;2.15;;;;;;;;;;4859811;29;20057;-65
2022/03/01 13:57:44;;;;;;;12.35;5.80;;;;;;;;;;4879492;29;20071;-65
2022/03/01 14:00:18;;;;;;;9.07;3.22;;;;;;;;;;4862864;29;20056;-67
2022/03/01 14:02:58;;;;;;;8.63;5.60;;;;;;;;;;4898298;29;20074;-64
2022/03/01 14:05:30;;;;;;;4.82;2.30;;;;;;;;;;4950784;29;20050;-66
2022/03/01 14:08:10;;;;;;;2.97;1.90;;;;;;;;;;4945084;29;20039;-65
2022/03/01 14:10:52;;;;;;;4.78;1.70;;;;;;;;;;4949768;29;20055;-65
2022/03/01 14:13:26;;;;;;;3.08;2.10;;;;;;;;;;4918297;29;20051;-65
2022/03/01 14:16:18;;;;;;;3.58;2.22;;;;;;;;;;4938349;28;20051;-64
2022/03/01 14:19:05;;;;;;;3.35;2.50;;;;;;;;;;4969850;28;20054;-65
2022/03/01 14:21:40;;;;;;;4.07;1.45;;;;;;;;;;4969620;28;20055;-66
2022/03/01 14:24:11;;;;;;;4.63;2.50;;;;;;;;;;4891554;28;20062;-66
2022/03/01 14:26:42;;;;;;;5.18;2.00;;;;;;;;;;4969567;28;20059;-66
2022/03/01 14:29:15;;;;;;;2.67;1.73;;;;;;;;;;4969943;28;20050;-65
2022/03/01 14:31:46;;;;;;;5.20;1.92;;;;;;;;;;4969827;28;20515;-66
2022/03/01 14:34:19;;;;;;;4.78;1.98;;;;;;;;;;4969818;28;20051;-66
2022/03/01 14:36:49;;;;;;;5.72;3.70;;;;;;;;;;4969330;28;20077;-65
2022/03/01 14:39:22;;;;;;;2.50;1.55;;;;;;;;;;4938013;28;20057;-64
2022/03/01 14:41:53;;;;;;;3.53;2.00;;;;;;;;;;4969545;28;20047;-64
2022/03/01 14:44:24;;;;;;;6.10;2.40;;;;;;;;;;4969612;28;20078;-64
2022/03/01 14:46:55;;;;;;;5.10;2.33;;;;;;;;;;4969510;28;20063;-64
2022/03/01 14:49:32;;;;;;;6.72;2.35;;;;;;;;;;4963358;28;20522;-65
2022/03/01 14:52:12;;;;;;;11.43;6.68;;;;;;;;;;4989079;28;20062;-65
2022/03/01 14:54:45;;;;;;;4.68;2.30;;;;;;;;;;4976950;28;20065;-65
2022/03/01 14:57:16;;;;;;;2.72;1.60;;;;;;;;;;4953644;28;20074;-65
2022/03/01 14:59:48;;;;;;;3.55;1.55;;;;;;;;;;4951799;28;20407;-65
2022/03/01 15:02:21;;;;;;;4.00;1.50;;;;;;;;;;4973244;28;20084;-64
2022/03/01 15:04:53;;;;;;;2.20;1.30;;;;;;;;;;4927682;28;20050;-65
2022/03/01 15:07:23;;;;;;;2.70;1.80;;;;;;;;;;4924976;28;20065;-66
2022/03/01 15:09:55;;;;;;;3.30;1.48;;;;;;;;;;4973240;28;20415;-65
2022/03/01 15:12:27;;;;;;;;;;;;;;;;;;4973541;28;20058;-65
2022/03/01 15:14:59;;;;;;;4.43;1.75;;;;;;;;;;4973156;28;19922;-65
2022/03/01 15:17:29;;;;;;;2.80;1.60;;;;;;;;;;4924926;28;20070;-64
2022/03/01 15:19:59;;;;;;;2.42;1.52;;;;;;;;;;4941099;28;20065;-66
2022/03/01 15:22:32;;;;;;;4.18;1.40;;;;;;;;;;4957094;28;20047;-66
2022/03/01 15:25:12;;;;;;;3.13;1.50;;;;;;;;;;4943324;28;20047;-66